Time;durP1;ratioP1;P1;durP2;ratioP2;P2;SDS_P1;SDS_P2;PMS_P1;PMS_P2;Temp;Humidity;BMP_temperature;BMP_pressure;BME280_temperature;BME280_humidity;BME280_pressure;Samples;Min_cycle;Max_cycle;Signal;HPM_P1;HPM_P2
2023/12/25 00:02:02;;;;;;;1.90;0.73;;;13.80;70.00;;;;;;2280963;56;21030;-71
2023/12/25 00:04:28;;;;;;;1.60;0.60;;;13.80;70.00;;;;;;2465403;55;20971;-70
2023/12/25 00:06:55;;;;;;;1.52;0.60;;;13.70;70.00;;;;;;2492509;54;20948;-72
2023/12/25 00:09:21;;;;;;;1.45;0.50;;;13.70;70.10;;;;;;2253214;56;21023;-70
2023/12/25 00:11:48;;;;;;;2.58;0.65;;;13.70;70.10;;;;;;2517798;54;21044;-71
2023/12/25 00:14:15;;;;;;;1.98;0.80;;;13.60;70.10;;;;;;2285258;56;20920;-69
2023/12/25 00:16:41;;;;;;;2.83;0.37;;;13.60;70.10;;;;;;2286557;56;20980;-69
2023/12/25 00:19:08;;;;;;;3.22;0.70;;;13.60;70.20;;;;;;2285717;56;21467;-69
2023/12/25 00:21:35;;;;;;;1.60;0.50;;;13.60;70.20;;;;;;2284597;55;21895;-68
2023/12/25 00:24:02;;;;;;;1.45;0.57;;;13.50;70.20;;;;;;2508966;54;20985;-71
2023/12/25 00:26:28;;;;;;;1.48;0.60;;;13.50;70.20;;;;;;2280796;55;20944;-69
2023/12/25 00:28:54;;;;;;;1.52;0.60;;;13.50;70.20;;;;;;2281956;56;20980;-70
2023/12/25 00:31:21;;;;;;;1.55;0.70;;;13.50;70.20;;;;;;2508661;55;20984;-69
2023/12/25 00:33:47;;;;;;;2.03;0.77;;;13.40;70.10;;;;;;2491957;55;21064;-70
2023/12/25 00:36:14;;;;;;;2.55;0.70;;;13.40;70.20;;;;;;2509283;55;20992;-71
2023/12/25 00:38:40;;;;;;;1.70;0.60;;;13.40;70.10;;;;;;2490374;55;21087;-71
2023/12/25 00:41:06;;;;;;;1.23;0.50;;;13.40;70.20;;;;;;2507807;55;21437;-72
2023/12/25 00:43:33;;;;;;;1.40;0.50;;;13.40;70.30;;;;;;2265497;55;20937;-69
2023/12/25 00:46:06;;;;;;;1.67;0.70;;;13.30;70.10;;;;;;2512671;55;20991;-70
2023/12/25 00:48:32;;;;;;;1.50;0.68;;;13.30;69.80;;;;;;2491500;54;21775;-70
2023/12/25 00:51:00;;;;;;;1.48;0.60;;;13.30;70.00;;;;;;2508561;54;20979;-69
2023/12/25 00:53:28;;;;;;;1.67;0.70;;;13.30;70.00;;;;;;2263547;56;20996;-71
2023/12/25 00:55:54;;;;;;;3.33;0.75;;;13.20;70.00;;;;;;2276396;55;21232;-69
2023/12/25 00:58:20;;;;;;;1.83;0.65;;;13.20;70.10;;;;;;2280938;56;21083;-69
2023/12/25 01:00:46;;;;;;;1.70;0.60;;;13.20;70.20;;;;;;2283876;55;20960;-69
2023/12/25 01:03:13;;;;;;;2.03;0.70;;;13.20;70.30;;;;;;2510579;54;20988;-70
2023/12/25 01:05:39;;;;;;;1.10;0.50;;;13.10;70.10;;;;;;2514119;54;21827;-71
2023/12/25 01:08:06;;;;;;;1.73;0.65;;;13.10;70.30;;;;;;2282251;56;20980;-69
2023/12/25 01:10:32;;;;;;;1.87;0.70;;;13.10;70.40;;;;;;2483930;54;21021;-71
2023/12/25 01:12:59;;;;;;;1.58;0.60;;;13.10;70.30;;;;;;2260097;56;21011;-70
2023/12/25 01:15:27;;;;;;;2.55;0.60;;;13.10;70.40;;;;;;2471497;54;21824;-71
2023/12/25 01:17:54;;;;;;;1.87;0.75;;;13.10;70.20;;;;;;2487046;54;21495;-71
2023/12/25 01:20:21;;;;;;;1.45;0.65;;;13.10;70.50;;;;;;2489086;54;21006;-68
2023/12/25 01:22:50;;;;;;;1.48;0.50;;;13.00;70.40;;;;;;2485309;55;21065;-71
2023/12/25 01:25:17;;;;;;;2.85;0.65;;;13.00;70.40;;;;;;2466664;55;20936;-69
2023/12/25 01:27:44;;;;;;;1.40;0.60;;;13.10;70.50;;;;;;2239415;56;21010;-69
2023/12/25 01:30:11;;;;;;;1.50;0.60;;;13.00;70.40;;;;;;2451480;54;20930;-71
2023/12/25 01:32:37;;;;;;;3.62;0.75;;;13.00;70.50;;;;;;2256349;55;21251;-68
2023/12/25 01:35:04;;;;;;;1.60;0.70;;;13.00;70.50;;;;;;2474153;54;21509;-72
2023/12/25 01:37:32;;;;;;;1.42;0.60;;;13.00;70.40;;;;;;2253309;55;20994;-68
2023/12/25 01:39:59;;;;;;;1.27;0.60;;;13.00;70.50;;;;;;2252672;56;21015;-71
2023/12/25 01:42:25;;;;;;;1.75;0.60;;;13.00;70.70;;;;;;2487129;55;21911;-69
2023/12/25 01:44:51;;;;;;;1.60;0.60;;;13.00;70.70;;;;;;2260679;55;21503;-70
2023/12/25 01:47:20;;;;;;;1.85;0.60;;;13.00;70.70;;;;;;2451008;55;20950;-70
2023/12/25 01:49:47;;;;;;;1.02;0.50;;;13.00;70.60;;;;;;2266674;55;21031;-69
2023/12/25 01:52:16;;;;;;;1.60;0.60;;;13.00;70.70;;;;;;2477709;55;20965;-69
2023/12/25 01:54:42;;;;;;;1.55;0.60;;;13.00;70.80;;;;;;2254926;55;21066;-69
2023/12/25 01:57:09;;;;;;;2.20;0.73;;;13.00;70.80;;;;;;2243234;55;21897;-69
2023/12/25 01:59:35;;;;;;;2.15;0.73;;;13.00;70.70;;;;;;2261049;56;21014;-71
2023/12/25 02:02:04;;;;;;;1.05;0.52;;;13.00;70.70;;;;;;2254177;55;20967;-71
2023/12/25 02:04:32;;;;;;;1.75;0.77;;;13.00;70.70;;;;;;2259372;56;21044;-70
2023/12/25 02:06:58;;;;;;;2.55;0.65;;;13.00;70.60;;;;;;2473145;55;21474;-70
2023/12/25 02:09:25;;;;;;;2.00;0.80;;;13.00;70.70;;;;;;2228143;56;21026;-69
2023/12/25 02:11:54;;;;;;;2.22;0.77;;;13.10;70.80;;;;;;2241714;55;21044;-67
2023/12/25 02:14:21;;;;;;;2.10;0.80;;;13.10;70.50;;;;;;2255373;55;21003;-69
2023/12/25 02:16:47;;;;;;;2.25;0.90;;;13.00;70.40;;;;;;2260570;55;20946;-69
2023/12/25 02:19:27;;;;;;;2.03;0.70;;;13.00;70.40;;;;;;2261704;55;20975;-69
2023/12/25 02:21:54;;;;;;;2.92;0.77;;;13.10;69.80;;;;;;2457059;55;21475;-70
2023/12/25 02:24:23;;;;;;;3.83;0.68;;;13.00;70.60;;;;;;2473010;55;20967;-70
2023/12/25 02:26:49;;;;;;;1.95;0.73;;;13.00;70.50;;;;;;2266495;55;20971;-70
2023/12/25 02:29:15;;;;;;;1.75;0.70;;;13.00;70.50;;;;;;2517959;55;21533;-68
2023/12/25 02:31:42;;;;;;;1.87;0.70;;;13.00;70.50;;;;;;2263776;56;20966;-71
2023/12/25 02:34:08;;;;;;;1.45;0.60;;;13.00;70.50;;;;;;2263056;56;20978;-70
2023/12/25 02:36:37;;;;;;;8.00;1.00;;;13.00;70.60;;;;;;2259442;56;20952;-69
2023/12/25 02:39:04;;;;;;;1.27;0.43;;;13.00;70.50;;;;;;2489119;54;21823;-71
2023/12/25 02:41:31;;;;;;;2.30;0.70;;;13.00;70.80;;;;;;2273707;56;20972;-69
2023/12/25 02:43:57;;;;;;;1.65;0.80;;;13.00;70.70;;;;;;2486089;55;20934;-71
2023/12/25 02:46:23;;;;;;;1.75;0.57;;;13.00;70.70;;;;;;2274290;55;21060;-68
2023/12/25 02:48:50;;;;;;;0.93;0.40;;;13.00;70.60;;;;;;2515880;55;21851;-71
2023/12/25 02:51:16;;;;;;;1.62;0.62;;;13.00;70.60;;;;;;2288450;56;20929;-69
2023/12/25 02:53:42;;;;;;;1.80;0.68;;;12.90;70.40;;;;;;2280935;55;21092;-70
2023/12/25 02:56:09;;;;;;;1.83;0.70;;;13.00;70.40;;;;;;2259439;56;20970;-69
2023/12/25 02:58:35;;;;;;;1.60;0.77;;;12.90;70.10;;;;;;2276233;56;20981;-69
2023/12/25 03:01:04;;;;;;;1.58;0.70;;;12.90;70.10;;;;;;2266762;56;21672;-69
2023/12/25 03:03:32;;;;;;;1.50;0.60;;;12.80;70.10;;;;;;2272952;56;21027;-69
2023/12/25 03:05:58;;;;;;;2.05;0.77;;;12.80;69.90;;;;;;2251242;56;20938;-71
2023/12/25 03:08:25;;;;;;;1.45;0.60;;;12.80;69.90;;;;;;2284601;56;21031;-69
2023/12/25 03:10:51;;;;;;;1.30;0.60;;;12.70;69.70;;;;;;2502584;55;20964;-70
2023/12/25 03:13:22;;;;;;;1.83;0.60;;;12.70;69.60;;;;;;2268716;55;21030;-71
2023/12/25 03:15:48;;;;;;;1.73;0.60;;;12.70;69.50;;;;;;2262710;56;20952;-69
2023/12/25 03:18:15;;;;;;;1.92;0.70;;;12.60;69.30;;;;;;2505092;54;21002;-68
2023/12/25 03:20:41;;;;;;;1.65;0.60;;;12.50;69.10;;;;;;2263406;56;20960;-70
2023/12/25 03:23:08;;;;;;;1.90;0.70;;;12.50;69.10;;;;;;2251740;56;21134;-68
2023/12/25 03:25:34;;;;;;;1.12;0.50;;;12.40;69.10;;;;;;2266951;56;20968;-68
2023/12/25 03:28:00;;;;;;;1.60;0.60;;;12.40;69.20;;;;;;2260585;56;21030;-70
2023/12/25 03:30:26;;;;;;;1.02;0.50;;;12.30;69.20;;;;;;2476961;55;20965;-70
2023/12/25 03:32:53;;;;;;;1.35;0.40;;;12.30;69.20;;;;;;2272352;56;21449;-70
2023/12/25 03:35:19;;;;;;;1.83;0.40;;;12.20;69.20;;;;;;2286277;56;21433;-69
2023/12/25 03:37:46;;;;;;;1.12;0.50;;;12.20;69.40;;;;;;2485815;55;20945;-69
2023/12/25 03:40:13;;;;;;;1.15;0.57;;;12.10;69.40;;;;;;2253270;56;20964;-70
2023/12/25 03:42:39;;;;;;;1.73;0.60;;;12.10;69.40;;;;;;2516765;55;22031;-69
2023/12/25 03:45:09;;;;;;;1.35;0.50;;;12.00;69.30;;;;;;2287050;56;21003;-70
2023/12/25 03:47:35;;;;;;;1.35;0.60;;;12.00;69.40;;;;;;2501616;55;20948;-69
2023/12/25 03:50:05;;;;;;;2.00;0.70;;;11.90;69.40;;;;;;2486157;55;20981;-71
2023/12/25 03:52:32;;;;;;;2.15;0.70;;;11.90;69.50;;;;;;2506785;55;20956;-70
2023/12/25 03:54:58;;;;;;;1.30;0.50;;;11.90;69.50;;;;;;2261821;56;21826;-70
2023/12/25 03:57:26;;;;;;;1.42;0.47;;;11.90;69.60;;;;;;2262877;56;21051;-70
2023/12/25 03:59:52;;;;;;;1.48;0.68;;;11.80;69.40;;;;;;2281003;55;20944;-69
2023/12/25 04:02:18;;;;;;;2.75;0.70;;;11.80;69.40;;;;;;2504801;54;20986;-69
2023/12/25 04:04:45;;;;;;;2.40;0.88;;;11.70;69.30;;;;;;2464964;55;21031;-68
2023/12/25 04:07:11;;;;;;;2.00;0.70;;;11.70;69.30;;;;;;2287409;56;20964;-70
2023/12/25 04:09:38;;;;;;;1.87;0.62;;;11.70;69.40;;;;;;2518078;55;20976;-68
2023/12/25 04:12:05;;;;;;;1.25;0.50;;;11.60;69.40;;;;;;2482111;55;21014;-68
2023/12/25 04:14:35;;;;;;;1.60;0.57;;;11.60;69.50;;;;;;2251577;55;20960;-69
2023/12/25 04:17:02;;;;;;;1.05;0.50;;;11.60;69.60;;;;;;2286957;56;21846;-70
2023/12/25 04:19:28;;;;;;;2.72;0.70;;;11.60;69.70;;;;;;2516888;55;20972;-68
2023/12/25 04:21:54;;;;;;;1.27;0.50;;;11.60;69.70;;;;;;2512853;55;21012;-69
2023/12/25 04:24:21;;;;;;;1.25;0.60;;;11.50;69.70;;;;;;2506498;54;21001;-68
2023/12/25 04:26:48;;;;;;;1.35;0.55;;;11.50;69.80;;;;;;2511596;55;21741;-68
2023/12/25 04:29:14;;;;;;;1.33;0.57;;;11.50;69.90;;;;;;2282957;56;21008;-70
2023/12/25 04:31:40;;;;;;;1.50;0.70;;;11.50;70.00;;;;;;2511934;55;20971;-68
2023/12/25 04:34:07;;;;;;;1.67;0.60;;;11.50;70.00;;;;;;2278738;56;21780;-68
2023/12/25 04:36:36;;;;;;;2.17;0.90;;;11.40;69.90;;;;;;2494814;55;21244;-68
2023/12/25 04:39:03;;;;;;;1.87;0.70;;;11.40;70.00;;;;;;2512068;55;21651;-70
2023/12/25 04:41:29;;;;;;;1.70;0.60;;;11.40;70.10;;;;;;2513117;54;20938;-69
2023/12/25 04:43:55;;;;;;;0.90;0.40;;;11.50;70.20;;;;;;2277291;56;20960;-68
2023/12/25 04:46:25;;;;;;;0.98;0.60;;;11.50;70.30;;;;;;2281669;55;20945;-70
2023/12/25 04:48:51;;;;;;;1.92;0.80;;;11.40;70.20;;;;;;2509355;55;20945;-70
2023/12/25 04:51:17;;;;;;;1.20;0.50;;;11.40;70.30;;;;;;2275615;56;20969;-68
2023/12/25 04:53:44;;;;;;;2.25;0.73;;;11.40;70.40;;;;;;2267868;56;21053;-68
2023/12/25 04:56:11;;;;;;;2.90;0.80;;;11.50;70.50;;;;;;2498326;55;21020;-70
2023/12/25 04:58:38;;;;;;;1.45;0.70;;;11.40;70.40;;;;;;2258361;56;21535;-68
2023/12/25 05:01:07;;;;;;;1.65;0.62;;;11.50;70.50;;;;;;2241278;56;20973;-69
2023/12/25 05:03:33;;;;;;;2.75;0.80;;;11.40;70.30;;;;;;2261095;55;20975;-68
2023/12/25 05:06:00;;;;;;;1.52;0.60;;;11.40;70.40;;;;;;2479666;55;21026;-69
2023/12/25 05:08:29;;;;;;;2.78;0.80;;;11.40;70.30;;;;;;2259409;55;21026;-69
2023/12/25 05:10:58;;;;;;;2.10;0.60;;;11.40;70.40;;;;;;2481674;55;21482;-70
2023/12/25 05:13:25;;;;;;;1.45;0.68;;;11.40;70.30;;;;;;2258102;56;21527;-69
2023/12/25 05:15:52;;;;;;;2.12;0.75;;;11.40;70.20;;;;;;2481602;55;20955;-69
2023/12/25 05:18:19;;;;;;;2.37;0.60;;;11.40;70.10;;;;;;2255949;56;21010;-71
2023/12/25 05:20:46;;;;;;;1.60;0.60;;;11.40;70.10;;;;;;2262567;55;20959;-70
2023/12/25 05:23:15;;;;;;;1.40;0.50;;;11.40;70.10;;;;;;2257685;55;21010;-68
2023/12/25 05:25:43;;;;;;;1.50;0.60;;;11.40;70.00;;;;;;2258903;55;21010;-69
2023/12/25 05:28:09;;;;;;;1.40;0.65;;;11.40;70.20;;;;;;2234870;56;20984;-70
2023/12/25 05:30:35;;;;;;;2.20;0.70;;;11.40;70.50;;;;;;2476740;55;20931;-70
2023/12/25 05:33:02;;;;;;;1.70;0.70;;;11.40;70.30;;;;;;2256211;56;21740;-69
2023/12/25 05:35:28;;;;;;;1.75;0.70;;;11.40;70.40;;;;;;2272876;55;20952;-68
2023/12/25 05:37:55;;;;;;;2.47;0.90;;;11.40;70.50;;;;;;2255041;56;21050;-68
2023/12/25 05:40:24;;;;;;;1.85;0.75;;;11.40;70.70;;;;;;2255711;56;21042;-69
2023/12/25 05:42:51;;;;;;;1.87;0.70;;;11.40;70.70;;;;;;2482883;55;21022;-68
2023/12/25 05:45:19;;;;;;;1.55;0.60;;;11.40;70.80;;;;;;2262180;55;20943;-69
2023/12/25 05:47:49;;;;;;;1.58;0.65;;;11.50;70.90;;;;;;2256955;55;20950;-70
2023/12/25 05:50:16;;;;;;;2.53;0.77;;;11.40;70.60;;;;;;2486843;55;20956;-69
2023/12/25 05:52:44;;;;;;;1.37;0.70;;;11.50;70.80;;;;;;2237513;56;21034;-68
2023/12/25 05:55:11;;;;;;;1.35;0.60;;;11.50;70.80;;;;;;2248017;56;20960;-70
2023/12/25 05:57:37;;;;;;;1.58;0.75;;;11.50;70.80;;;;;;2257659;55;20962;-68
2023/12/25 06:00:07;;;;;;;2.22;0.88;;;11.50;70.90;;;;;;2481359;55;21003;-69
2023/12/25 06:02:33;;;;;;;2.65;0.70;;;11.50;70.80;;;;;;2477340;55;21107;-70
2023/12/25 06:04:59;;;;;;;1.55;0.70;;;11.50;70.80;;;;;;2468892;54;21020;-70
2023/12/25 06:07:26;;;;;;;2.78;0.60;;;11.60;70.90;;;;;;2480351;55;21050;-70
2023/12/25 06:09:53;;;;;;;1.77;0.65;;;11.60;70.80;;;;;;2262427;56;20964;-70
2023/12/25 06:12:20;;;;;;;1.60;0.68;;;11.60;70.80;;;;;;2238584;56;21014;-70
2023/12/25 06:14:46;;;;;;;1.48;0.70;;;11.60;70.80;;;;;;2476887;55;21285;-68
2023/12/25 06:17:12;;;;;;;1.50;0.52;;;11.60;70.70;;;;;;2252510;55;21069;-68
2023/12/25 06:19:39;;;;;;;1.90;0.73;;;11.60;70.70;;;;;;2492622;54;21478;-68
2023/12/25 06:22:05;;;;;;;2.47;0.80;;;11.60;70.70;;;;;;2503836;54;20942;-69
2023/12/25 06:24:32;;;;;;;1.83;0.70;;;11.60;70.60;;;;;;2265199;56;21030;-68
2023/12/25 06:27:00;;;;;;;1.87;0.70;;;11.70;70.60;;;;;;2283464;56;21133;-69
2023/12/25 06:29:27;;;;;;;1.50;0.60;;;11.60;70.40;;;;;;2263380;56;20969;-69
2023/12/25 06:31:55;;;;;;;1.15;0.55;;;11.60;70.50;;;;;;2271371;56;20932;-68
2023/12/25 06:34:21;;;;;;;1.40;0.60;;;11.60;70.50;;;;;;2505837;54;20969;-68
2023/12/25 06:36:48;;;;;;;1.17;0.47;;;11.60;70.40;;;;;;2281086;56;21410;-69
2023/12/25 06:39:15;;;;;;;2.28;0.70;;;11.60;70.40;;;;;;2267157;56;21035;-69
2023/12/25 06:41:41;;;;;;;1.60;0.60;;;11.60;70.40;;;;;;2503761;55;21851;-69
2023/12/25 06:44:08;;;;;;;2.28;0.88;;;11.60;70.40;;;;;;2262109;56;20970;-70
2023/12/25 06:46:36;;;;;;;1.75;0.80;;;11.60;70.50;;;;;;2264717;55;20974;-70
2023/12/25 06:49:02;;;;;;;1.35;0.55;;;11.70;70.50;;;;;;2508799;54;21037;-69
2023/12/25 06:51:30;;;;;;;2.00;0.77;;;11.60;70.40;;;;;;2279963;56;20956;-68
2023/12/25 06:53:57;;;;;;;1.70;0.65;;;11.60;70.40;;;;;;2486093;55;21782;-69
2023/12/25 06:56:26;;;;;;;1.83;0.80;;;11.60;70.40;;;;;;2508810;55;20992;-70
2023/12/25 06:58:52;;;;;;;1.40;0.60;;;11.60;70.20;;;;;;2505388;54;21057;-68
2023/12/25 07:01:22;;;;;;;3.05;0.60;;;11.60;70.40;;;;;;2269797;56;21015;-70
2023/12/25 07:03:49;;;;;;;1.73;0.70;;;11.60;70.10;;;;;;2511959;55;21797;-69
2023/12/25 07:06:17;;;;;;;1.60;0.60;;;11.60;70.30;;;;;;2280211;56;21354;-69
2023/12/25 07:08:43;;;;;;;2.83;0.80;;;11.60;70.40;;;;;;2280525;55;20948;-69
2023/12/25 07:11:11;;;;;;;2.08;0.90;;;11.60;70.40;;;;;;2267606;56;20981;-68
2023/12/25 07:13:37;;;;;;;1.92;1.10;;;11.60;70.50;;;;;;2502410;55;21001;-71
2023/12/25 07:16:05;;;;;;;1.85;0.70;;;11.60;70.40;;;;;;2497293;55;20956;-70
2023/12/25 07:18:35;;;;;;;1.95;0.70;;;11.60;70.50;;;;;;2253798;55;21046;-68
2023/12/25 07:21:01;;;;;;;1.95;0.70;;;11.60;70.60;;;;;;2253315;55;20973;-69
2023/12/25 07:23:27;;;;;;;1.80;0.80;;;11.60;70.60;;;;;;2250631;55;21397;-68
2023/12/25 07:25:55;;;;;;;4.32;0.80;;;11.60;70.70;;;;;;2501267;54;20988;-70
2023/12/25 07:28:22;;;;;;;2.22;0.95;;;11.60;70.60;;;;;;2280993;56;20967;-68
2023/12/25 07:30:49;;;;;;;1.70;0.70;;;11.60;70.70;;;;;;2285539;55;20976;-68
2023/12/25 07:33:15;;;;;;;2.05;0.70;;;11.60;70.70;;;;;;2283520;55;20956;-70
2023/12/25 07:35:42;;;;;;;1.60;0.60;;;11.70;71.00;;;;;;2281180;55;21466;-69
2023/12/25 07:38:13;;;;;;;2.22;0.77;;;11.60;70.90;;;;;;2269723;56;22098;-68
2023/12/25 07:40:41;;;;;;;1.87;0.80;;;11.70;71.10;;;;;;2505150;54;21002;-69
2023/12/25 07:43:09;;;;;;;2.08;0.77;;;11.70;71.20;;;;;;2281387;56;21023;-68
2023/12/25 07:45:36;;;;;;;2.85;0.85;;;11.70;71.20;;;;;;2262745;56;21017;-69
2023/12/25 07:48:05;;;;;;;1.95;0.88;;;11.80;71.30;;;;;;2495960;55;21001;-71
2023/12/25 07:50:33;;;;;;;2.40;1.00;;;11.80;71.10;;;;;;2511443;55;21015;-69
2023/12/25 07:52:59;;;;;;;1.83;0.85;;;11.80;71.30;;;;;;2504483;55;21053;-69
2023/12/25 07:55:29;;;;;;;2.20;0.90;;;11.80;71.40;;;;;;2498664;54;21892;-70
2023/12/25 07:57:56;;;;;;;2.10;0.80;;;11.90;71.50;;;;;;2488569;55;21077;-69
2023/12/25 08:00:22;;;;;;;1.95;0.75;;;11.90;71.30;;;;;;2248222;55;20982;-68
2023/12/25 08:02:51;;;;;;;1.75;0.73;;;12.00;71.50;;;;;;2252958;56;21501;-69
2023/12/25 08:05:18;;;;;;;2.33;0.93;;;12.00;71.40;;;;;;2481349;54;21029;-68
2023/12/25 08:07:45;;;;;;;1.67;0.70;;;12.00;71.40;;;;;;2482838;55;20962;-68
2023/12/25 08:10:11;;;;;;;2.53;0.90;;;12.00;71.40;;;;;;2483171;55;20986;-69
2023/12/25 08:12:42;;;;;;;3.10;1.20;;;12.10;71.50;;;;;;2481406;55;20974;-68
2023/12/25 08:15:12;;;;;;;3.75;1.02;;;12.10;71.40;;;;;;2481017;54;21042;-71
2023/12/25 08:17:39;;;;;;;2.55;1.08;;;12.20;71.30;;;;;;2251092;55;20937;-69
2023/12/25 08:20:07;;;;;;;2.70;0.90;;;12.20;71.50;;;;;;2484145;55;21737;-69
2023/12/25 08:22:36;;;;;;;2.30;1.00;;;12.20;71.50;;;;;;2465382;54;21381;-68
2023/12/25 08:25:03;;;;;;;1.87;0.90;;;12.20;71.40;;;;;;2259021;55;20990;-68
2023/12/25 08:27:29;;;;;;;1.92;0.90;;;12.20;71.40;;;;;;2256080;55;21000;-70
2023/12/25 08:29:56;;;;;;;1.87;0.80;;;12.30;71.50;;;;;;2477980;55;20977;-68
2023/12/25 08:32:22;;;;;;;1.60;0.70;;;12.30;71.40;;;;;;2260137;55;20978;-70
2023/12/25 08:34:48;;;;;;;2.80;0.80;;;12.30;71.40;;;;;;2465639;55;21811;-69
2023/12/25 08:37:15;;;;;;;3.35;1.10;;;12.30;71.40;;;;;;2258433;56;21010;-68
2023/12/25 08:39:41;;;;;;;3.70;0.93;;;12.40;71.40;;;;;;2258808;55;21075;-68
2023/12/25 08:42:08;;;;;;;2.37;1.10;;;12.40;71.40;;;;;;2481743;54;20996;-70
2023/12/25 08:44:35;;;;;;;2.42;0.90;;;12.40;71.30;;;;;;2484200;55;20927;-68
2023/12/25 08:47:04;;;;;;;2.37;1.08;;;12.40;71.20;;;;;;2478731;54;20958;-69
2023/12/25 08:49:30;;;;;;;2.37;0.90;;;12.50;71.10;;;;;;2478780;54;21029;-68
2023/12/25 08:51:58;;;;;;;2.67;0.85;;;12.50;71.30;;;;;;2481341;55;21006;-71
2023/12/25 08:54:24;;;;;;;1.60;0.70;;;12.50;71.30;;;;;;2481399;55;20962;-69
2023/12/25 08:56:51;;;;;;;2.10;0.80;;;12.50;71.30;;;;;;2253808;55;20982;-68
2023/12/25 08:59:18;;;;;;;2.28;0.88;;;12.50;71.30;;;;;;2471460;55;21025;-69
2023/12/25 09:01:45;;;;;;;2.20;0.95;;;12.60;71.40;;;;;;2473085;54;21761;-68
2023/12/25 09:04:12;;;;;;;1.80;0.80;;;12.60;71.40;;;;;;2494494;54;21010;-69
2023/12/25 09:06:41;;;;;;;2.05;0.73;;;12.60;71.40;;;;;;2261787;56;21646;-69
2023/12/25 09:09:09;;;;;;;3.35;1.10;;;12.60;71.20;;;;;;2256164;55;21436;-68
2023/12/25 09:11:36;;;;;;;2.83;1.00;;;12.60;71.30;;;;;;2266776;56;21032;-70
2023/12/25 09:14:03;;;;;;;2.33;0.80;;;12.70;71.50;;;;;;2258714;55;20993;-68
2023/12/25 09:16:30;;;;;;;2.50;0.80;;;12.70;71.10;;;;;;2245954;56;21014;-70
2023/12/25 09:18:56;;;;;;;3.67;0.80;;;12.70;71.20;;;;;;2491526;54;20946;-68
2023/12/25 09:21:22;;;;;;;1.80;0.70;;;12.70;71.30;;;;;;2510675;54;20973;-69
2023/12/25 09:23:49;;;;;;;2.12;0.77;;;12.70;71.30;;;;;;2278561;55;20954;-68
2023/12/25 09:26:19;;;;;;;2.58;0.90;;;12.70;71.20;;;;;;2519716;54;20956;-72
2023/12/25 09:28:45;;;;;;;1.70;0.62;;;12.80;71.10;;;;;;2290026;56;20918;-68
2023/12/25 09:31:12;;;;;;;2.58;0.88;;;12.80;71.20;;;;;;2504239;54;21094;-69
2023/12/25 09:33:41;;;;;;;1.85;0.75;;;12.80;71.30;;;;;;2504113;54;21198;-70
2023/12/25 09:36:07;;;;;;;3.00;1.00;;;12.80;71.30;;;;;;2514501;54;21447;-69
2023/12/25 09:38:34;;;;;;;1.77;0.80;;;12.90;71.20;;;;;;2286128;55;21016;-72
2023/12/25 09:41:00;;;;;;;1.92;0.70;;;12.90;71.30;;;;;;2507611;55;21098;-68
2023/12/25 09:43:29;;;;;;;2.30;0.82;;;12.90;71.20;;;;;;2519107;54;21053;-70
2023/12/25 09:45:56;;;;;;;1.98;0.77;;;12.90;70.90;;;;;;2286479;55;21458;-69
2023/12/25 09:48:25;;;;;;;2.50;0.80;;;12.90;71.10;;;;;;2517977;54;20922;-69
2023/12/25 09:50:52;;;;;;;2.08;0.80;;;12.90;71.00;;;;;;2286151;57;20961;-70
2023/12/25 09:53:18;;;;;;;1.77;0.80;;;13.00;71.10;;;;;;2285565;56;20921;-70
2023/12/25 09:55:44;;;;;;;2.22;0.82;;;13.00;71.10;;;;;;2259649;56;21500;-69
2023/12/25 09:58:11;;;;;;;2.12;0.85;;;13.00;71.00;;;;;;2262443;56;20974;-69
2023/12/25 10:00:37;;;;;;;2.08;0.90;;;13.00;71.00;;;;;;2255873;55;20994;-69
2023/12/25 10:03:03;;;;;;;2.78;0.80;;;13.00;71.00;;;;;;2255269;56;21428;-68
2023/12/25 10:05:30;;;;;;;1.75;0.75;;;13.00;71.00;;;;;;2255934;56;20958;-71
2023/12/25 10:07:57;;;;;;;1.98;0.80;;;13.00;71.00;;;;;;2482252;55;21114;-69
2023/12/25 10:10:28;;;;;;;6.80;0.82;;;13.00;71.00;;;;;;2483969;55;20984;-70
2023/12/25 10:12:57;;;;;;;2.47;0.80;;;13.10;70.80;;;;;;2483106;55;21003;-69
2023/12/25 10:15:24;;;;;;;2.42;0.80;;;13.10;71.00;;;;;;2490689;54;20934;-71
2023/12/25 10:18:06;;;;;;;1.35;0.70;;;13.10;71.00;;;;;;2261260;55;20985;-68
2023/12/25 10:20:32;;;;;;;2.72;0.80;;;13.10;70.20;;;;;;2487303;55;20978;-69
2023/12/25 10:23:00;;;;;;;1.98;0.70;;;13.10;71.10;;;;;;2258671;55;21924;-68
2023/12/25 10:25:28;;;;;;;0.95;0.50;;;13.10;71.20;;;;;;2499382;54;21031;-70
2023/12/25 10:27:55;;;;;;;2.47;0.73;;;13.10;71.20;;;;;;2262385;55;21050;-68
2023/12/25 10:30:22;;;;;;;2.40;0.73;;;13.10;71.10;;;;;;2247106;56;20879;-68
2023/12/25 10:33:14;;;;;;;2.03;0.80;;;13.20;71.30;;;;;;2482647;55;21022;-69
2023/12/25 10:35:43;;;;;;;1.80;0.70;;;13.20;70.30;;;;;;2260366;56;20984;-69
2023/12/25 10:38:13;;;;;;;1.95;0.70;;;13.20;71.40;;;;;;2252937;56;21133;-69
2023/12/25 10:40:39;;;;;;;1.87;0.80;;;13.20;71.40;;;;;;2483713;55;21531;-67
2023/12/25 10:43:09;;;;;;;2.00;0.70;;;13.20;71.40;;;;;;2262346;55;21045;-70
2023/12/25 10:45:38;;;;;;;1.37;0.57;;;13.30;71.30;;;;;;2259297;55;21003;-69
2023/12/25 10:48:07;;;;;;;2.03;0.60;;;13.30;71.40;;;;;;2244052;55;21483;-69
2023/12/25 10:50:36;;;;;;;2.30;0.90;;;13.30;71.50;;;;;;2246161;55;21008;-68
2023/12/25 10:53:05;;;;;;;1.90;0.73;;;13.30;71.50;;;;;;2519444;54;20954;-70
2023/12/25 10:55:42;;;;;;;1.70;0.68;;;13.30;71.30;;;;;;2253592;54;20988;-71
2023/12/25 10:58:10;;;;;;;1.58;0.60;;;13.30;71.30;;;;;;2280736;56;20960;-68
2023/12/25 11:00:43;;;;;;;1.92;0.60;;;13.30;71.60;;;;;;2241233;56;20978;-69
2023/12/25 11:03:12;;;;;;;1.65;0.70;;;13.30;71.30;;;;;;2255185;56;21027;-71
2023/12/25 11:05:39;;;;;;;1.45;0.50;;;13.40;71.80;;;;;;2255387;56;21030;-71
2023/12/25 11:08:05;;;;;;;2.00;0.57;;;13.40;71.70;;;;;;2258822;56;21429;-68
2023/12/25 11:10:31;;;;;;;2.35;0.80;;;13.40;71.70;;;;;;2266799;56;21033;-69
2023/12/25 11:13:00;;;;;;;3.28;1.12;;;13.40;71.50;;;;;;2519606;54;21498;-68
2023/12/25 11:15:26;;;;;;;2.53;0.70;;;13.40;71.70;;;;;;2285723;56;20942;-69
2023/12/25 11:17:54;;;;;;;2.10;0.75;;;13.40;71.60;;;;;;2520247;55;20990;-68
2023/12/25 11:20:20;;;;;;;1.50;0.62;;;13.40;71.60;;;;;;2502619;54;20995;-70
2023/12/25 11:22:47;;;;;;;1.10;0.60;;;13.40;71.60;;;;;;2286157;57;20934;-69
2023/12/25 11:25:15;;;;;;;1.62;0.70;;;13.40;71.40;;;;;;2520086;54;21593;-69
2023/12/25 11:27:51;;;;;;;1.70;0.60;;;13.50;71.50;;;;;;2292257;56;21017;-71
2023/12/25 11:30:18;;;;;;;1.80;0.70;;;13.50;71.70;;;;;;2290443;56;20913;-69
2023/12/25 11:32:47;;;;;;;2.15;0.90;;;13.50;71.70;;;;;;2525569;54;20989;-71
2023/12/25 11:35:13;;;;;;;2.87;0.75;;;13.50;71.70;;;;;;2281615;56;20985;-69
2023/12/25 11:37:44;;;;;;;1.77;0.73;;;13.50;71.70;;;;;;2524761;54;20938;-68
2023/12/25 11:40:10;;;;;;;2.60;0.75;;;13.60;71.60;;;;;;2283815;56;21032;-71
2023/12/25 11:42:37;;;;;;;1.80;0.80;;;13.50;71.40;;;;;;2288384;56;20938;-70
2023/12/25 11:45:07;;;;;;;2.65;0.82;;;13.50;71.70;;;;;;2262411;56;20920;-70
2023/12/25 11:47:44;;;;;;;2.17;0.80;;;13.60;71.80;;;;;;2290320;56;20973;-71
2023/12/25 11:50:12;;;;;;;2.12;0.85;;;13.60;71.10;;;;;;2277639;55;20939;-71
2023/12/25 11:53:30;;;;;;;3.20;0.95;;;13.60;71.50;;;;;;2506146;54;20929;-69
2023/12/25 11:55:56;;;;;;;2.80;0.68;;;13.60;70.40;;;;;;2509996;54;21762;-70
2023/12/25 11:58:23;;;;;;;2.08;0.60;;;13.60;71.90;;;;;;2523830;54;20917;-68
2023/12/25 12:00:49;;;;;;;2.10;0.62;;;13.60;71.80;;;;;;2291675;56;20985;-69
2023/12/25 12:03:17;;;;;;;2.72;0.73;;;13.70;71.70;;;;;;2289372;55;20941;-69
2023/12/25 12:05:45;;;;;;;2.70;0.82;;;13.70;71.70;;;;;;2292004;56;20926;-71
2023/12/25 12:08:12;;;;;;;1.75;0.57;;;13.70;71.90;;;;;;2290496;56;20997;-70
2023/12/25 12:10:39;;;;;;;1.65;0.70;;;13.70;72.70;;;;;;2494439;54;20967;-69
2023/12/25 12:13:06;;;;;;;3.42;0.60;;;13.70;71.90;;;;;;2507357;54;21282;-71
2023/12/25 12:15:33;;;;;;;2.40;0.90;;;13.70;71.90;;;;;;2291890;56;20990;-68
2023/12/25 12:18:00;;;;;;;2.08;0.90;;;13.80;71.80;;;;;;2524151;54;20973;-68
2023/12/25 12:20:26;;;;;;;2.12;0.70;;;13.80;72.00;;;;;;2501819;54;20951;-71
2023/12/25 12:22:54;;;;;;;2.03;0.60;;;13.80;71.90;;;;;;2276290;55;20945;-69
2023/12/25 12:25:20;;;;;;;1.65;0.50;;;13.80;72.00;;;;;;2508647;54;20959;-69
2023/12/25 12:27:47;;;;;;;2.70;1.02;;;13.80;72.10;;;;;;2478073;55;20987;-71
2023/12/25 12:30:13;;;;;;;1.95;0.90;;;13.80;72.10;;;;;;2509090;54;20959;-68
2023/12/25 12:32:40;;;;;;;2.45;0.68;;;13.90;72.30;;;;;;2269584;56;20938;-71
2023/12/25 12:35:08;;;;;;;2.05;0.85;;;13.90;72.20;;;;;;2291437;55;20997;-70
2023/12/25 12:37:34;;;;;;;2.05;0.90;;;13.90;72.30;;;;;;2290884;56;20989;-71
2023/12/25 12:40:04;;;;;;;3.25;0.80;;;13.90;72.20;;;;;;2275331;55;21816;-71
2023/12/25 12:42:35;;;;;;;1.62;0.60;;;13.90;71.90;;;;;;2493232;54;20929;-70
2023/12/25 12:45:01;;;;;;;2.47;0.73;;;14.00;72.00;;;;;;2291068;55;21874;-70
2023/12/25 12:47:30;;;;;;;3.05;0.77;;;14.00;72.20;;;;;;2289206;56;20965;-69
2023/12/25 12:50:01;;;;;;;1.98;0.70;;;14.00;72.10;;;;;;2291362;56;21025;-71